createdAt,value
2019-02-03T00:00:47.088Z,16.77
2019-02-03T00:01:51.091Z,16.76
2019-02-03T00:02:54.723Z,16.75
2019-02-03T00:03:58.452Z,16.76
2019-02-03T00:05:01.943Z,16.75
2019-02-03T00:06:05.983Z,16.74
2019-02-03T00:07:09.538Z,16.74
2019-02-03T00:08:13.101Z,16.73
2019-02-03T00:09:17.174Z,16.73
2019-02-03T00:10:20.723Z,16.73
2019-02-03T00:11:24.226Z,16.69
2019-02-03T00:12:27.788Z,16.70
2019-02-03T00:13:31.415Z,16.71
2019-02-03T00:14:35.070Z,16.70
2019-02-03T00:15:38.575Z,16.69
2019-02-03T00:16:42.582Z,16.69
2019-02-03T00:17:46.435Z,16.68
2019-02-03T00:18:50.034Z,16.67
2019-02-03T00:19:53.604Z,16.66
2019-02-03T00:20:57.320Z,16.67
2019-02-03T00:22:00.955Z,16.65
2019-02-03T00:23:04.586Z,16.66
2019-02-03T00:24:08.092Z,16.66
2019-02-03T00:25:11.740Z,16.65
2019-02-03T00:26:17.687Z,16.65
2019-02-03T00:27:20.556Z,16.64
2019-02-03T00:28:24.139Z,16.65
2019-02-03T00:29:27.762Z,16.64
2019-02-03T00:30:31.460Z,16.64
2019-02-03T00:31:35.013Z,16.64
2019-02-03T00:32:38.931Z,16.64
2019-02-03T00:33:42.421Z,16.65
2019-02-03T00:34:45.927Z,16.63
2019-02-03T00:35:49.518Z,16.64
2019-02-03T00:36:53.057Z,16.64
2019-02-03T00:37:56.609Z,16.64
2019-02-03T00:39:00.341Z,16.69
2019-02-03T00:40:05.194Z,16.77
2019-02-03T00:41:08.795Z,16.84
2019-02-03T00:42:12.262Z,16.89
2019-02-03T00:43:15.832Z,16.94
2019-02-03T00:44:19.470Z,16.99
2019-02-03T00:45:23.101Z,17.03
2019-02-03T00:46:26.654Z,17.06
2019-02-03T00:47:30.205Z,17.10
2019-02-03T00:48:33.864Z,17.12
2019-02-03T00:49:37.450Z,17.12
2019-02-03T00:50:41.002Z,17.13
2019-02-03T00:51:44.688Z,17.13
2019-02-03T00:52:48.265Z,17.14
2019-02-03T00:53:51.750Z,17.14
2019-02-03T00:54:55.350Z,17.13
2019-02-03T00:55:58.963Z,17.13
2019-02-03T00:57:02.478Z,17.12
2019-02-03T00:58:06.236Z,17.11
2019-02-03T00:59:09.789Z,17.10
2019-02-03T01:00:16.039Z,17.08
2019-02-03T01:01:19.689Z,17.07
2019-02-03T01:02:23.368Z,17.05
2019-02-03T01:03:26.941Z,17.05
2019-02-03T01:04:30.737Z,17.03
2019-02-03T01:05:34.352Z,17.01
2019-02-03T01:06:38.041Z,17.01
2019-02-03T01:07:41.682Z,17.00
2019-02-03T01:08:45.264Z,16.98
2019-02-03T01:09:48.783Z,16.95
2019-02-03T01:10:52.569Z,16.95
2019-02-03T01:11:56.161Z,16.95
2019-02-03T01:12:59.667Z,16.94
2019-02-03T01:14:03.487Z,16.92
2019-02-03T01:15:09.339Z,16.92
2019-02-03T01:16:12.877Z,16.91
2019-02-03T01:17:16.582Z,16.90
2019-02-03T01:18:20.183Z,16.89
2019-02-03T01:19:23.692Z,16.89
2019-02-03T01:20:27.606Z,16.87
2019-02-03T01:21:31.152Z,16.87
2019-02-03T01:22:34.791Z,16.86
2019-02-03T01:23:38.365Z,16.84
2019-02-03T01:24:41.969Z,16.85
2019-02-03T01:25:45.550Z,16.83
2019-02-03T01:26:49.132Z,16.84
2019-02-03T01:27:52.718Z,16.83
2019-02-03T01:28:56.298Z,16.82
2019-02-03T01:29:59.982Z,16.81
2019-02-03T01:31:03.481Z,16.80
2019-02-03T01:32:07.065Z,16.80
2019-02-03T01:33:10.727Z,16.81
2019-02-03T01:34:14.374Z,16.80
2019-02-03T01:35:18.410Z,16.79
2019-02-03T01:36:22.051Z,16.79
2019-02-03T01:37:25.616Z,16.78
2019-02-03T01:38:29.205Z,16.77
2019-02-03T01:39:32.771Z,16.75
2019-02-03T01:40:36.260Z,16.77
2019-02-03T01:41:39.737Z,16.77
2019-02-03T01:42:43.306Z,16.75
2019-02-03T01:43:46.897Z,16.75
2019-02-03T01:44:50.401Z,16.74
2019-02-03T01:45:53.905Z,16.74
2019-02-03T01:46:57.462Z,16.74
2019-02-03T01:48:01.030Z,16.74
2019-02-03T01:49:04.782Z,16.73
2019-02-03T01:50:11.393Z,16.72
2019-02-03T01:51:15.237Z,16.71
2019-02-03T01:52:18.746Z,16.72
2019-02-03T01:53:22.370Z,16.70
2019-02-03T01:54:25.969Z,16.71
2019-02-03T01:55:29.595Z,16.71
2019-02-03T01:56:33.092Z,16.69
2019-02-03T01:57:36.657Z,16.70
2019-02-03T01:58:40.221Z,16.70
2019-02-03T01:59:43.759Z,16.69
2019-02-03T02:00:47.448Z,16.68
2019-02-03T02:01:51.009Z,16.69
2019-02-03T02:02:54.601Z,16.68
2019-02-03T02:03:58.186Z,16.67
2019-02-03T02:05:01.719Z,16.68
2019-02-03T02:06:05.710Z,16.67
2019-02-03T02:07:09.261Z,16.66
2019-02-03T02:08:12.760Z,16.66
2019-02-03T02:09:16.336Z,16.66
2019-02-03T02:10:25.024Z,16.64
2019-02-03T02:11:28.594Z,16.63
2019-02-03T02:12:32.079Z,16.64
2019-02-03T02:13:35.659Z,16.65
2019-02-03T02:14:39.157Z,16.64
2019-02-03T02:15:42.912Z,16.66
2019-02-03T02:16:46.469Z,16.66
2019-02-03T02:17:50.852Z,16.67
2019-02-03T02:18:54.374Z,16.67
2019-02-03T02:19:57.866Z,16.67
2019-02-03T02:21:02.997Z,16.66
2019-02-03T02:22:06.845Z,16.66
2019-02-03T02:23:10.502Z,16.67
2019-02-03T02:24:13.997Z,16.69
2019-02-03T02:25:17.944Z,16.67
2019-02-03T02:26:21.618Z,16.68
2019-02-03T02:27:25.171Z,16.68
2019-02-03T02:28:28.691Z,16.68
2019-02-03T02:29:32.168Z,16.67
2019-02-03T02:30:35.793Z,16.68
2019-02-03T02:31:39.310Z,16.68
2019-02-03T02:32:42.876Z,16.67
2019-02-03T02:33:46.370Z,16.68
2019-02-03T02:34:49.860Z,16.68
2019-02-03T02:35:53.411Z,16.68
2019-02-03T02:36:57.206Z,16.69
2019-02-03T02:38:06.419Z,16.69
2019-02-03T02:39:07.483Z,16.70
2019-02-03T02:40:16.794Z,16.71
2019-02-03T02:41:20.268Z,16.70
2019-02-03T02:42:23.793Z,16.68
2019-02-03T02:43:27.355Z,16.69
2019-02-03T02:44:30.936Z,16.68
2019-02-03T02:45:34.453Z,16.67
2019-02-03T02:46:37.950Z,16.65
2019-02-03T02:47:41.698Z,16.65
2019-02-03T02:48:45.222Z,16.65
2019-02-03T02:49:48.697Z,16.64
2019-02-03T02:50:52.214Z,16.61
2019-02-03T02:51:55.714Z,16.62
2019-02-03T02:52:59.643Z,16.61
2019-02-03T02:54:03.623Z,16.59
2019-02-03T02:55:08.932Z,16.61
2019-02-03T02:56:12.483Z,16.60
2019-02-03T02:57:16.001Z,16.59
2019-02-03T02:58:19.489Z,16.58
2019-02-03T02:59:22.997Z,16.57
2019-02-03T03:01:29.738Z,16.57
2019-02-03T03:02:33.286Z,16.57
2019-02-03T03:03:36.885Z,16.56
2019-02-03T03:04:40.443Z,16.55
2019-02-03T03:05:43.991Z,16.56
2019-02-03T03:06:47.572Z,16.55
2019-02-03T03:07:51.283Z,16.55
2019-02-03T03:09:01.575Z,16.54
2019-02-03T03:10:08.568Z,16.54
2019-02-03T03:11:12.571Z,16.53
2019-02-03T03:12:16.158Z,16.53
2019-02-03T03:13:19.691Z,16.52
2019-02-03T03:14:23.196Z,16.52
2019-02-03T03:15:26.797Z,16.49
2019-02-03T03:16:30.296Z,16.49
2019-02-03T03:17:33.956Z,16.51
2019-02-03T03:18:37.571Z,16.49
2019-02-03T03:19:41.084Z,16.49
2019-02-03T03:20:44.700Z,16.49
2019-02-03T03:21:48.205Z,16.48
2019-02-03T03:22:51.860Z,16.47
2019-02-03T03:23:55.510Z,16.48
2019-02-03T03:24:59.150Z,16.46
2019-02-03T03:26:02.889Z,16.46
2019-02-03T03:27:06.493Z,16.46
2019-02-03T03:28:09.967Z,16.46
2019-02-03T03:29:13.483Z,16.46
2019-02-03T03:30:22.093Z,16.45
2019-02-03T03:31:25.581Z,16.44
2019-02-03T03:32:29.155Z,16.45
2019-02-03T03:33:32.643Z,16.46
2019-02-03T03:34:36.125Z,16.44
2019-02-03T03:35:39.825Z,16.43
2019-02-03T03:36:43.422Z,16.43
2019-02-03T03:37:47.067Z,16.44
2019-02-03T03:38:50.605Z,16.44
2019-02-03T03:39:54.116Z,16.43
2019-02-03T03:40:57.706Z,16.43
2019-02-03T03:42:01.561Z,16.43
2019-02-03T03:43:05.354Z,16.42
2019-02-03T03:44:09.000Z,16.44
2019-02-03T03:45:12.932Z,16.43
2019-02-03T03:46:16.467Z,16.44
2019-02-03T03:47:19.972Z,16.45
2019-02-03T03:48:23.465Z,16.46
2019-02-03T03:49:26.932Z,16.48
2019-02-03T03:50:30.513Z,16.52
2019-02-03T03:51:34.180Z,16.55
2019-02-03T03:52:39.402Z,16.57
2019-02-03T03:53:43.081Z,16.59
2019-02-03T03:54:46.590Z,16.63
2019-02-03T03:55:50.192Z,16.67
2019-02-03T03:56:53.931Z,16.72
2019-02-03T03:57:57.750Z,16.75
2019-02-03T03:59:01.337Z,16.82
2019-02-03T04:00:08.054Z,16.91
2019-02-03T04:01:11.721Z,16.97
2019-02-03T04:02:15.335Z,17.09
2019-02-03T04:03:18.818Z,17.16
2019-02-03T04:04:22.361Z,17.26
2019-02-03T04:05:26.010Z,17.37
2019-02-03T04:06:29.533Z,17.46
2019-02-03T04:07:33.054Z,17.58
2019-02-03T04:08:44.924Z,17.65
2019-02-03T04:09:42.262Z,17.75
2019-02-03T04:10:45.843Z,17.90
2019-02-03T04:11:49.462Z,17.97
2019-02-03T04:12:53.281Z,18.04
2019-02-03T04:13:57.230Z,18.11
2019-02-03T04:15:00.735Z,18.17
2019-02-03T04:16:04.401Z,18.26
2019-02-03T04:17:07.898Z,18.31
2019-02-03T04:18:11.395Z,18.40
2019-02-03T04:19:14.963Z,18.47
2019-02-03T04:20:29.229Z,18.54
2019-02-03T04:21:32.794Z,18.65
2019-02-03T04:22:36.361Z,18.73
2019-02-03T04:23:39.864Z,18.75
2019-02-03T04:24:43.377Z,18.78
2019-02-03T04:25:46.955Z,18.80
2019-02-03T04:26:50.501Z,18.84
2019-02-03T04:27:54.071Z,18.93
2019-02-03T04:28:57.579Z,18.96
2019-02-03T04:30:01.078Z,18.96
2019-02-03T04:31:05.186Z,18.97
2019-02-03T04:32:08.745Z,18.98
2019-02-03T04:33:12.256Z,19.01
2019-02-03T04:34:15.784Z,19.05
2019-02-03T04:35:19.403Z,19.06
2019-02-03T04:36:22.919Z,19.13
2019-02-03T04:37:26.397Z,19.15
2019-02-03T04:38:29.895Z,19.16
2019-02-03T04:39:33.509Z,19.15
2019-02-03T04:40:36.983Z,19.16
2019-02-03T04:41:40.574Z,19.22
2019-02-03T04:42:44.307Z,19.22
2019-02-03T04:43:47.789Z,19.19
2019-02-03T04:44:51.390Z,19.19
2019-02-03T04:45:55.265Z,19.21
2019-02-03T04:46:58.790Z,19.17
2019-02-03T04:48:02.396Z,19.20
2019-02-03T04:49:05.888Z,19.22
2019-02-03T04:50:11.854Z,19.27
2019-02-03T04:51:15.438Z,19.28
2019-02-03T04:52:18.921Z,19.28
2019-02-03T04:53:22.447Z,19.32
2019-02-03T04:54:25.921Z,19.27
2019-02-03T04:55:29.493Z,19.27
2019-02-03T04:56:33.008Z,19.24
2019-02-03T04:57:36.577Z,19.22
2019-02-03T04:58:40.068Z,19.26
2019-02-03T04:59:43.571Z,19.27
2019-02-03T05:00:47.502Z,19.30
2019-02-03T05:01:50.998Z,19.28
2019-02-03T05:02:54.560Z,19.28
2019-02-03T05:03:58.195Z,19.30
2019-02-03T05:05:01.777Z,19.30
2019-02-03T05:06:05.342Z,19.29
2019-02-03T05:07:08.833Z,19.29
2019-02-03T05:08:12.323Z,19.32
2019-02-03T05:09:15.821Z,19.32
2019-02-03T05:10:20.400Z,19.31
2019-02-03T05:11:23.967Z,19.28
2019-02-03T05:12:27.551Z,19.25
2019-02-03T05:13:31.045Z,19.23
2019-02-03T05:14:34.532Z,19.21
2019-02-03T05:15:38.439Z,19.17
2019-02-03T05:16:42.008Z,19.14
2019-02-03T05:17:45.744Z,19.10
2019-02-03T05:18:49.210Z,19.06
2019-02-03T05:19:52.695Z,19.03
2019-02-03T05:20:56.374Z,19.02
2019-02-03T05:21:59.941Z,18.97
2019-02-03T05:23:03.441Z,18.92
2019-02-03T05:24:07.064Z,18.89
2019-02-03T05:25:12.796Z,18.86
2019-02-03T05:26:16.307Z,18.83
2019-02-03T05:27:19.797Z,18.81
2019-02-03T05:28:23.428Z,18.75
2019-02-03T05:29:26.920Z,18.72
2019-02-03T05:30:32.747Z,18.68
2019-02-03T05:31:36.786Z,18.63
2019-02-03T05:32:40.369Z,18.57
2019-02-03T05:33:43.920Z,18.58
2019-02-03T05:34:47.434Z,18.55
2019-02-03T05:35:50.987Z,18.52
2019-02-03T05:36:54.594Z,18.54
2019-02-03T05:37:58.193Z,18.54
2019-02-03T05:39:01.835Z,18.52
2019-02-03T05:40:08.061Z,18.52
2019-02-03T05:41:11.712Z,18.54
2019-02-03T05:42:15.246Z,18.55
2019-02-03T05:43:18.759Z,18.53
2019-02-03T05:44:22.320Z,18.50
2019-02-03T05:45:25.833Z,18.52
2019-02-03T05:46:29.658Z,18.50
2019-02-03T05:47:33.620Z,18.50
2019-02-03T05:48:37.262Z,18.48
2019-02-03T05:49:40.830Z,18.47
2019-02-03T05:50:44.366Z,18.42
2019-02-03T05:51:47.869Z,18.40
2019-02-03T05:52:51.487Z,18.40
2019-02-03T05:53:54.978Z,18.38
2019-02-03T05:54:58.549Z,18.38
2019-02-03T05:56:02.109Z,18.38
2019-02-03T05:57:05.795Z,18.36
2019-02-03T05:58:09.356Z,18.33
2019-02-03T05:59:12.951Z,18.33
2019-02-03T06:00:29.150Z,18.31
2019-02-03T06:01:32.653Z,18.31
2019-02-03T06:02:36.150Z,18.29
2019-02-03T06:03:39.764Z,18.27
2019-02-03T06:04:43.712Z,18.25
2019-02-03T06:05:47.251Z,18.25
2019-02-03T06:06:50.754Z,18.23
2019-02-03T06:07:54.388Z,18.23
2019-02-03T06:08:57.958Z,18.23
2019-02-03T06:10:01.573Z,18.20
2019-02-03T06:11:05.427Z,18.17
2019-02-03T06:12:08.941Z,18.18
2019-02-03T06:13:12.505Z,18.17
2019-02-03T06:14:16.127Z,18.17
2019-02-03T06:15:19.754Z,18.17
2019-02-03T06:16:23.188Z,18.15
2019-02-03T06:17:26.846Z,18.15
2019-02-03T06:18:30.482Z,18.13
2019-02-03T06:19:34.365Z,18.12
2019-02-03T06:20:38.033Z,18.11
2019-02-03T06:21:41.526Z,18.11
2019-02-03T06:22:45.768Z,18.07
2019-02-03T06:23:49.329Z,18.09
2019-02-03T06:24:52.882Z,18.06
2019-02-03T06:25:56.481Z,18.05
2019-02-03T06:27:00.315Z,18.05
2019-02-03T06:28:04.072Z,18.04
2019-02-03T06:29:07.648Z,18.02
2019-02-03T06:30:22.988Z,18.00
2019-02-03T06:31:26.614Z,17.99
2019-02-03T06:32:30.098Z,17.98
2019-02-03T06:33:33.654Z,17.98
2019-02-03T06:34:37.272Z,17.95
2019-02-03T06:35:40.821Z,17.96
2019-02-03T06:36:44.342Z,17.94
2019-02-03T06:37:48.295Z,17.95
2019-02-03T06:38:51.867Z,17.95
2019-02-03T06:39:55.542Z,17.93
2019-02-03T06:40:59.115Z,17.93
2019-02-03T06:42:02.687Z,17.93
2019-02-03T06:43:06.191Z,17.91
2019-02-03T06:44:09.721Z,17.90
2019-02-03T06:45:31.142Z,17.88
2019-02-03T06:46:41.857Z,17.88
2019-02-03T06:47:45.349Z,17.85
2019-02-03T06:48:49.103Z,17.84
2019-02-03T06:49:52.669Z,17.83
2019-02-03T06:50:56.274Z,17.82
2019-02-03T06:51:59.864Z,17.80
2019-02-03T06:53:03.507Z,17.79
2019-02-03T06:54:07.074Z,17.78
2019-02-03T06:55:10.744Z,17.76
2019-02-03T06:56:14.986Z,17.74
2019-02-03T06:57:18.639Z,17.73
2019-02-03T06:58:22.472Z,17.73
2019-02-03T06:59:26.444Z,17.72
2019-02-03T07:00:30.038Z,17.71
2019-02-03T07:01:33.640Z,17.70
2019-02-03T07:02:37.216Z,17.70
2019-02-03T07:03:40.735Z,17.68
2019-02-03T07:04:44.222Z,17.68
2019-02-03T07:05:47.774Z,17.66
2019-02-03T07:06:51.522Z,17.66
2019-02-03T07:07:55.170Z,17.63
2019-02-03T07:08:58.770Z,17.63
2019-02-03T07:10:02.322Z,17.63
2019-02-03T07:11:05.995Z,17.63
2019-02-03T07:12:09.565Z,17.61
2019-02-03T07:13:13.495Z,17.62
2019-02-03T07:14:17.148Z,17.59
2019-02-03T07:15:20.717Z,17.59
2019-02-03T07:16:24.298Z,17.57
2019-02-03T07:17:27.822Z,17.58
2019-02-03T07:18:31.325Z,17.54
2019-02-03T07:19:34.827Z,17.56
2019-02-03T07:20:38.329Z,17.56
2019-02-03T07:21:41.840Z,17.56
2019-02-03T07:22:45.510Z,17.55
2019-02-03T07:23:49.057Z,17.53
2019-02-03T07:24:52.645Z,17.54
2019-02-03T07:25:56.243Z,17.52
2019-02-03T07:26:59.878Z,17.53
2019-02-03T07:28:03.773Z,17.52
2019-02-03T07:29:07.630Z,17.52
2019-02-03T07:30:16.957Z,17.51
2019-02-03T07:31:20.547Z,17.51
2019-02-03T07:32:24.048Z,17.47
2019-02-03T07:33:27.584Z,17.48
2019-02-03T07:34:31.075Z,17.48
2019-02-03T07:35:34.646Z,17.48
2019-02-03T07:36:38.220Z,17.47
2019-02-03T07:37:41.806Z,17.46
2019-02-03T07:38:45.342Z,17.45
2019-02-03T07:39:48.844Z,17.46
2019-02-03T07:40:52.506Z,17.45
2019-02-03T07:41:56.063Z,17.44
2019-02-03T07:42:59.713Z,17.45
2019-02-03T07:44:03.595Z,17.44
2019-02-03T07:45:08.087Z,17.44
2019-02-03T07:46:11.593Z,17.44
2019-02-03T07:47:15.093Z,17.43
2019-02-03T07:48:18.678Z,17.43
2019-02-03T07:49:22.209Z,17.42
2019-02-03T07:50:25.933Z,17.43
2019-02-03T07:51:30.377Z,17.42
2019-02-03T07:52:33.878Z,17.42
2019-02-03T07:53:37.458Z,17.42
2019-02-03T07:54:41.006Z,17.41
2019-02-03T07:55:44.573Z,17.40
2019-02-03T07:56:48.096Z,17.41
2019-02-03T07:57:51.609Z,17.41
2019-02-03T07:58:55.254Z,17.40
2019-02-03T07:59:59.067Z,17.40
2019-02-03T08:01:02.718Z,17.41
2019-02-03T08:02:06.528Z,17.39
2019-02-03T08:03:10.104Z,17.39
2019-02-03T08:04:13.675Z,17.39
2019-02-03T08:05:17.475Z,17.38
2019-02-03T08:06:21.059Z,17.38
2019-02-03T08:07:24.675Z,17.39
2019-02-03T08:08:28.377Z,17.38
2019-02-03T08:09:32.026Z,17.38
2019-02-03T08:10:35.709Z,17.39
2019-02-03T08:11:39.356Z,17.39
2019-02-03T08:12:43.039Z,17.39
2019-02-03T08:13:46.986Z,17.38
2019-02-03T08:14:50.543Z,17.38
2019-02-03T08:15:54.181Z,17.39
2019-02-03T08:16:57.850Z,17.39
2019-02-03T08:18:01.566Z,17.39
2019-02-03T08:19:05.434Z,17.39
2019-02-03T08:20:12.113Z,17.39
2019-02-03T08:21:15.863Z,17.39
2019-02-03T08:22:19.505Z,17.38
2019-02-03T08:23:23.013Z,17.39
2019-02-03T08:24:26.514Z,17.39
2019-02-03T08:25:30.090Z,17.39
2019-02-03T08:26:33.766Z,17.39
2019-02-03T08:27:37.340Z,17.40
2019-02-03T08:28:41.272Z,17.39
2019-02-03T08:29:45.233Z,17.39
2019-02-03T08:30:48.810Z,17.40
2019-02-03T08:31:52.516Z,17.39
2019-02-03T08:32:56.195Z,17.41
2019-02-03T08:33:59.697Z,17.41
2019-02-03T08:35:03.215Z,17.41
2019-02-03T08:36:07.346Z,17.41
2019-02-03T08:37:10.979Z,17.41
2019-02-03T08:38:14.492Z,17.41
2019-02-03T08:39:17.994Z,17.44
2019-02-03T08:40:36.096Z,17.43
2019-02-03T08:41:29.284Z,17.43
2019-02-03T08:42:35.167Z,17.41
2019-02-03T08:43:38.068Z,17.38
2019-02-03T08:44:41.981Z,17.36
2019-02-03T08:45:45.708Z,17.35
2019-02-03T08:46:49.204Z,17.32
2019-02-03T08:47:52.958Z,17.26
2019-02-03T08:48:56.528Z,17.22
2019-02-03T08:50:00.030Z,17.17
2019-02-03T08:51:03.597Z,17.10
2019-02-03T08:52:07.343Z,17.06
2019-02-03T08:53:10.934Z,17.01
2019-02-03T08:54:14.512Z,16.94
2019-02-03T08:55:18.307Z,16.88
2019-02-03T08:56:21.840Z,16.82
2019-02-03T08:57:26.159Z,16.78
2019-02-03T08:58:29.730Z,16.72
2019-02-03T08:59:33.609Z,16.68
2019-02-03T09:00:38.961Z,16.63
2019-02-03T09:01:42.763Z,16.58
2019-02-03T09:02:47.001Z,16.55
2019-02-03T09:03:50.702Z,16.52
2019-02-03T09:04:54.359Z,16.48
2019-02-03T09:05:58.053Z,16.47
2019-02-03T09:07:01.670Z,16.44
2019-02-03T09:08:05.645Z,16.42
2019-02-03T09:09:09.831Z,16.41
2019-02-03T09:10:18.439Z,16.42
2019-02-03T09:11:22.002Z,16.42
2019-02-03T09:12:25.584Z,16.41
2019-02-03T09:13:29.178Z,16.42
2019-02-03T09:14:32.828Z,16.40
2019-02-03T09:15:36.360Z,16.40
2019-02-03T09:16:40.374Z,16.39
2019-02-03T09:17:44.176Z,16.39
2019-02-03T09:18:47.634Z,16.34
2019-02-03T09:19:51.237Z,16.33
2019-02-03T09:20:56.089Z,16.29
2019-02-03T09:21:59.819Z,16.34
2019-02-03T09:23:03.575Z,16.36
2019-02-03T09:24:07.210Z,16.39
2019-02-03T09:25:11.163Z,16.40
2019-02-03T09:26:14.828Z,16.43
2019-02-03T09:27:18.406Z,16.42
2019-02-03T09:28:22.087Z,16.43
2019-02-03T09:29:25.729Z,16.43
2019-02-03T09:30:31.441Z,16.44
2019-02-03T09:31:35.094Z,16.45
2019-02-03T09:32:38.832Z,16.45
2019-02-03T09:33:42.339Z,16.45
2019-02-03T09:34:45.984Z,16.52
2019-02-03T09:35:49.642Z,16.57
2019-02-03T09:36:53.251Z,16.62
2019-02-03T09:37:57.185Z,16.72
2019-02-03T09:39:00.845Z,16.79
2019-02-03T09:40:07.424Z,16.86
2019-02-03T09:41:11.132Z,16.91
2019-02-03T09:42:14.685Z,16.97
2019-02-03T09:43:18.351Z,17.01
2019-02-03T09:44:21.860Z,17.07
2019-02-03T09:45:26.122Z,17.10
2019-02-03T09:46:29.817Z,17.14
2019-02-03T09:47:33.622Z,17.21
2019-02-03T09:48:37.754Z,17.23
2019-02-03T09:49:41.271Z,17.24
2019-02-03T09:50:44.851Z,17.27
2019-02-03T09:51:48.609Z,17.29
2019-02-03T09:52:53.430Z,17.28
2019-02-03T09:53:57.071Z,17.30
2019-02-03T09:55:00.757Z,17.32
2019-02-03T09:56:04.310Z,17.33
2019-02-03T09:57:07.853Z,17.32
2019-02-03T09:58:11.577Z,17.34
2019-02-03T09:59:15.355Z,17.35
2019-02-03T10:00:25.431Z,17.34
2019-02-03T10:01:29.695Z,17.36
2019-02-03T10:02:33.601Z,17.35
2019-02-03T10:03:37.278Z,17.35
2019-02-03T10:04:41.054Z,17.34
2019-02-03T10:05:44.688Z,17.35
2019-02-03T10:06:48.354Z,17.33
2019-02-03T10:07:51.894Z,17.33
2019-02-03T10:08:55.570Z,17.33
2019-02-03T10:09:59.178Z,17.34
2019-02-03T10:11:11.643Z,17.33
2019-02-03T10:12:08.130Z,17.34
2019-02-03T10:13:11.903Z,17.35
2019-02-03T10:14:15.519Z,17.35
2019-02-03T10:15:19.163Z,17.35
2019-02-03T10:16:22.819Z,17.33
2019-02-03T10:17:26.460Z,17.33
2019-02-03T10:18:30.156Z,17.32
2019-02-03T10:19:34.438Z,17.33
2019-02-03T10:20:38.854Z,17.30
2019-02-03T10:21:42.415Z,17.30
2019-02-03T10:22:45.998Z,17.33
2019-02-03T10:23:49.546Z,17.37
2019-02-03T10:24:53.041Z,17.39
2019-02-03T10:25:56.708Z,17.46
2019-02-03T10:27:00.360Z,17.52
2019-02-03T10:28:04.459Z,17.62
2019-02-03T10:29:07.898Z,17.67
2019-02-03T10:30:14.157Z,17.75
2019-02-03T10:31:17.972Z,17.85
2019-02-03T10:32:21.491Z,17.92
2019-02-03T10:33:25.124Z,18.02
2019-02-03T10:34:29.679Z,18.08
2019-02-03T10:35:34.523Z,18.17
2019-02-03T10:36:38.396Z,18.23
2019-02-03T10:37:42.063Z,18.26
2019-02-03T10:38:45.686Z,18.31
2019-02-03T10:39:49.354Z,18.33
2019-02-03T10:40:52.868Z,18.37
2019-02-03T10:41:56.434Z,18.38
2019-02-03T10:43:00.863Z,18.38
2019-02-03T10:44:05.009Z,18.41
2019-02-03T10:45:11.937Z,18.39
2019-02-03T10:46:15.684Z,18.37
2019-02-03T10:47:19.325Z,18.36
2019-02-03T10:48:22.996Z,18.33
2019-02-03T10:49:26.508Z,18.33
2019-02-03T10:50:32.549Z,18.31
2019-02-03T10:51:36.712Z,18.31
2019-02-03T10:52:40.225Z,18.29
2019-02-03T10:53:43.970Z,18.26
2019-02-03T10:54:47.479Z,18.27
2019-02-03T10:55:51.175Z,18.24
2019-02-03T10:56:54.909Z,18.24
2019-02-03T10:57:58.866Z,18.23
2019-02-03T10:59:02.534Z,18.20
2019-02-03T11:01:17.452Z,18.17
2019-02-03T11:02:21.097Z,18.16
2019-02-03T11:03:24.774Z,18.16
2019-02-03T11:04:28.341Z,18.20
2019-02-03T11:05:46.309Z,18.24
2019-02-03T11:06:49.966Z,18.28
2019-02-03T11:07:53.719Z,18.33
2019-02-03T11:08:57.473Z,18.32
2019-02-03T11:10:01.593Z,18.34
2019-02-03T11:11:05.786Z,18.34
2019-02-03T11:12:11.042Z,18.33
2019-02-03T11:13:16.420Z,18.34
2019-02-03T11:14:21.120Z,18.32
2019-02-03T11:15:26.150Z,18.29
2019-02-03T11:16:30.124Z,18.28
2019-02-03T11:17:33.771Z,18.27
2019-02-03T11:18:37.268Z,18.26
2019-02-03T11:19:40.774Z,18.24
2019-02-03T11:20:44.349Z,18.20
2019-02-03T11:21:47.836Z,18.19
2019-02-03T11:22:51.610Z,18.19
2019-02-03T11:23:56.134Z,18.18
2019-02-03T11:24:59.851Z,18.21
2019-02-03T11:26:04.075Z,18.24
2019-02-03T11:27:07.789Z,18.22
2019-02-03T11:28:11.518Z,18.24
2019-02-03T11:29:15.218Z,18.27
2019-02-03T11:30:21.745Z,18.26
2019-02-03T11:31:25.370Z,18.27
2019-02-03T11:32:28.992Z,18.26
2019-02-03T11:33:32.664Z,18.26
2019-02-03T11:34:36.300Z,18.27
2019-02-03T11:35:39.928Z,18.23
2019-02-03T11:36:43.574Z,18.23
2019-02-03T11:37:47.399Z,18.24
2019-02-03T11:38:51.496Z,18.24
2019-02-03T11:39:55.965Z,18.21
2019-02-03T11:41:00.056Z,18.21
2019-02-03T11:42:03.938Z,18.20
2019-02-03T11:43:08.215Z,18.21
2019-02-03T11:44:12.712Z,18.20
2019-02-03T11:45:19.568Z,18.20
2019-02-03T11:46:23.642Z,18.24
2019-02-03T11:47:27.817Z,18.23
2019-02-03T11:48:31.526Z,18.25
2019-02-03T11:49:35.577Z,18.26
2019-02-03T11:50:43.671Z,18.26
2019-02-03T11:51:47.332Z,18.32
2019-02-03T11:52:50.977Z,18.34
2019-02-03T11:53:55.059Z,18.34
2019-02-03T11:54:58.737Z,18.37
2019-02-03T11:56:02.358Z,18.40
2019-02-03T11:57:06.386Z,18.43
2019-02-03T11:58:11.710Z,18.48
2019-02-03T11:59:15.483Z,18.50
2019-02-03T12:00:27.623Z,18.56
2019-02-03T12:01:33.021Z,18.66
2019-02-03T12:02:41.877Z,18.74
2019-02-03T12:03:42.359Z,18.76
2019-02-03T12:04:45.917Z,18.85
2019-02-03T12:05:50.235Z,18.94
2019-02-03T12:06:53.995Z,19.06
2019-02-03T12:07:57.553Z,19.16
2019-02-03T12:09:01.158Z,19.20
2019-02-03T12:10:07.696Z,19.28
2019-02-03T12:11:11.472Z,19.40
2019-02-03T12:12:15.141Z,19.49
2019-02-03T12:13:18.672Z,19.57
2019-02-03T12:14:22.279Z,19.67
2019-02-03T12:15:27.137Z,19.79
2019-02-03T12:16:30.874Z,19.85
2019-02-03T12:17:34.851Z,19.92
2019-02-03T12:18:38.565Z,19.92
2019-02-03T12:19:42.198Z,19.98
2019-02-03T12:20:49.889Z,19.97
2019-02-03T12:21:53.143Z,20.02
2019-02-03T12:22:57.009Z,20.03
2019-02-03T12:24:00.794Z,20.12
2019-02-03T12:25:05.918Z,20.16
2019-02-03T12:26:09.787Z,20.16
2019-02-03T12:27:13.439Z,20.17
2019-02-03T12:28:17.040Z,20.16
2019-02-03T12:29:20.638Z,20.15
2019-02-03T12:30:26.861Z,20.17
2019-02-03T12:31:30.509Z,20.21
2019-02-03T12:32:34.276Z,20.27
2019-02-03T12:33:38.934Z,20.30
2019-02-03T12:34:42.964Z,20.34
2019-02-03T12:35:47.055Z,20.34
2019-02-03T12:36:50.720Z,20.41
2019-02-03T12:37:54.844Z,20.47
2019-02-03T12:38:58.689Z,20.54
2019-02-03T12:40:02.285Z,20.56
2019-02-03T12:41:05.947Z,20.62
2019-02-03T12:42:13.086Z,20.66
2019-02-03T12:43:15.107Z,20.73
2019-02-03T12:44:18.888Z,20.71
2019-02-03T12:45:22.841Z,20.73
2019-02-03T12:46:26.569Z,20.73
2019-02-03T12:47:30.388Z,20.73
2019-02-03T12:48:34.145Z,20.75
2019-02-03T12:49:37.858Z,20.72
2019-02-03T12:50:41.699Z,20.66
2019-02-03T12:51:45.847Z,20.60
2019-02-03T12:52:50.024Z,20.61
2019-02-03T12:53:53.725Z,20.63
2019-02-03T12:54:57.769Z,20.62
2019-02-03T12:56:01.304Z,20.61
2019-02-03T12:57:05.279Z,20.68
2019-02-03T12:58:09.115Z,20.72
2019-02-03T12:59:12.813Z,20.75
2019-02-03T13:00:21.200Z,20.76
2019-02-03T13:01:24.829Z,20.81
2019-02-03T13:02:28.550Z,20.80
2019-02-03T13:03:32.338Z,20.81
2019-02-03T13:04:36.205Z,20.89
2019-02-03T13:05:40.279Z,20.95
2019-02-03T13:06:43.951Z,20.96
2019-02-03T13:07:47.890Z,20.97
2019-02-03T13:08:51.935Z,20.98
2019-02-03T13:09:55.954Z,20.99
2019-02-03T13:11:02.421Z,20.95
2019-02-03T13:12:06.167Z,20.96
2019-02-03T13:13:14.339Z,20.95
2019-02-03T13:14:18.338Z,20.94
2019-02-03T13:15:24.920Z,20.92
2019-02-03T13:16:30.450Z,20.90
2019-02-03T13:17:34.246Z,20.90
2019-02-03T13:18:37.951Z,20.86
2019-02-03T13:19:41.502Z,20.83
2019-02-03T13:20:48.325Z,20.79
2019-02-03T13:22:01.662Z,20.77
2019-02-03T13:23:12.726Z,20.73
2019-02-03T13:24:18.875Z,20.73
2019-02-03T13:25:22.987Z,20.69
2019-02-03T13:26:27.289Z,20.69
2019-02-03T13:27:42.807Z,20.70
2019-02-03T13:28:48.895Z,20.72
2019-02-03T13:29:52.495Z,20.77
2019-02-03T13:30:56.139Z,20.77
2019-02-03T13:32:10.355Z,20.77
2019-02-03T13:33:05.368Z,20.75
2019-02-03T13:34:09.005Z,20.76
2019-02-03T13:35:12.841Z,20.77
2019-02-03T13:36:16.648Z,20.81
2019-02-03T13:37:20.382Z,20.77
2019-02-03T13:38:24.050Z,20.78
2019-02-03T13:39:28.438Z,20.77
2019-02-03T13:40:33.690Z,20.78
2019-02-03T13:41:37.330Z,20.75
2019-02-03T13:42:42.254Z,20.72
2019-02-03T13:43:46.285Z,20.70
2019-02-03T13:44:50.031Z,20.67
2019-02-03T13:45:53.804Z,20.62
2019-02-03T13:46:57.373Z,20.59